sensor_id;sensor_type;location;lat;lon;timestamp;P1;durP1;ratioP1;P2;durP2;ratioP2
57718;SDS011;43561;50.090;18.522;2023-04-03T00:09:48;11.02;;;8.38;;
57718;SDS011;43561;50.090;18.522;2023-04-03T00:19:50;15.82;;;9.63;;
57718;SDS011;43561;50.090;18.522;2023-04-03T00:29:51;12.60;;;9.90;;
57718;SDS011;43561;50.090;18.522;2023-04-03T00:39:53;19.40;;;13.02;;
57718;SDS011;43561;50.090;18.522;2023-04-03T00:49:55;15.02;;;10.35;;
57718;SDS011;43561;50.090;18.522;2023-04-03T00:59:59;14.45;;;11.80;;
57718;SDS011;43561;50.090;18.522;2023-04-03T01:10:07;10.35;;;9.02;;
57718;SDS011;43561;50.090;18.522;2023-04-03T01:30:56;14.38;;;10.27;;
57718;SDS011;43561;50.090;18.522;2023-04-03T01:41:02;7.93;;;7.13;;
57718;SDS011;43561;50.090;18.522;2023-04-03T01:51:04;7.28;;;6.57;;
57718;SDS011;43561;50.090;18.522;2023-04-03T02:01:06;16.50;;;6.63;;
57718;SDS011;43561;50.090;18.522;2023-04-03T02:11:08;13.07;;;7.68;;
57718;SDS011;43561;50.090;18.522;2023-04-03T02:21:10;5.28;;;4.35;;
57718;SDS011;43561;50.090;18.522;2023-04-03T02:31:12;7.43;;;5.47;;
57718;SDS011;43561;50.090;18.522;2023-04-03T02:41:17;12.18;;;3.67;;
57718;SDS011;43561;50.090;18.522;2023-04-03T02:51:18;5.57;;;4.07;;
57718;SDS011;43561;50.090;18.522;2023-04-03T03:01:21;7.18;;;5.60;;
57718;SDS011;43561;50.090;18.522;2023-04-03T03:11:23;5.60;;;4.53;;
57718;SDS011;43561;50.090;18.522;2023-04-03T03:21:25;10.05;;;4.43;;
57718;SDS011;43561;50.090;18.522;2023-04-03T03:31:27;7.85;;;4.03;;
57718;SDS011;43561;50.090;18.522;2023-04-03T03:41:29;6.28;;;3.15;;
57718;SDS011;43561;50.090;18.522;2023-04-03T03:51:31;10.00;;;6.35;;
57718;SDS011;43561;50.090;18.522;2023-04-03T04:01:33;9.35;;;3.70;;
57718;SDS011;43561;50.090;18.522;2023-04-03T04:11:36;11.23;;;5.57;;
57718;SDS011;43561;50.090;18.522;2023-04-03T04:21:38;7.78;;;4.18;;
57718;SDS011;43561;50.090;18.522;2023-04-03T04:31:40;4.28;;;3.58;;
57718;SDS011;43561;50.090;18.522;2023-04-03T04:41:42;7.45;;;3.95;;
57718;SDS011;43561;50.090;18.522;2023-04-03T04:51:45;3.53;;;1.83;;
57718;SDS011;43561;50.090;18.522;2023-04-03T05:01:57;14.98;;;3.40;;
57718;SDS011;43561;50.090;18.522;2023-04-03T05:12:00;13.27;;;5.78;;
57718;SDS011;43561;50.090;18.522;2023-04-03T05:22:07;5.85;;;3.42;;
57718;SDS011;43561;50.090;18.522;2023-04-03T05:32:11;9.52;;;5.82;;
57718;SDS011;43561;50.090;18.522;2023-04-03T05:42:14;4.97;;;4.57;;
57718;SDS011;43561;50.090;18.522;2023-04-03T05:52:24;14.70;;;5.05;;
57718;SDS011;43561;50.090;18.522;2023-04-03T06:02:32;6.30;;;4.45;;
57718;SDS011;43561;50.090;18.522;2023-04-03T06:12:34;9.73;;;2.75;;
57718;SDS011;43561;50.090;18.522;2023-04-03T06:22:37;4.93;;;3.15;;
57718;SDS011;43561;50.090;18.522;2023-04-03T06:32:39;17.52;;;6.10;;
57718;SDS011;43561;50.090;18.522;2023-04-03T06:42:41;6.43;;;2.67;;
57718;SDS011;43561;50.090;18.522;2023-04-03T06:52:49;6.55;;;3.58;;
57718;SDS011;43561;50.090;18.522;2023-04-03T07:02:51;5.88;;;2.72;;
57718;SDS011;43561;50.090;18.522;2023-04-03T07:12:53;7.80;;;4.13;;
57718;SDS011;43561;50.090;18.522;2023-04-03T07:22:55;7.10;;;5.05;;
57718;SDS011;43561;50.090;18.522;2023-04-03T07:32:57;5.60;;;2.65;;
57718;SDS011;43561;50.090;18.522;2023-04-03T07:42:59;3.92;;;3.47;;
57718;SDS011;43561;50.090;18.522;2023-04-03T07:53:03;11.13;;;3.50;;
57718;SDS011;43561;50.090;18.522;2023-04-03T08:03:06;4.63;;;2.60;;
57718;SDS011;43561;50.090;18.522;2023-04-03T08:13:11;7.90;;;4.18;;
57718;SDS011;43561;50.090;18.522;2023-04-03T08:23:13;7.43;;;4.78;;
57718;SDS011;43561;50.090;18.522;2023-04-03T08:33:15;8.00;;;5.25;;
57718;SDS011;43561;50.090;18.522;2023-04-03T08:43:37;3.25;;;1.88;;
57718;SDS011;43561;50.090;18.522;2023-04-03T08:53:57;4.80;;;2.33;;
57718;SDS011;43561;50.090;18.522;2023-04-03T09:04:15;2.63;;;1.90;;
57718;SDS011;43561;50.090;18.522;2023-04-03T09:24:27;3.30;;;2.67;;
57718;SDS011;43561;50.090;18.522;2023-04-03T09:34:30;3.15;;;1.40;;
57718;SDS011;43561;50.090;18.522;2023-04-03T09:44:37;5.80;;;2.03;;
57718;SDS011;43561;50.090;18.522;2023-04-03T09:54:39;4.20;;;2.53;;
57718;SDS011;43561;50.090;18.522;2023-04-03T10:04:41;3.58;;;1.58;;
57718;SDS011;43561;50.090;18.522;2023-04-03T11:06:57;5.75;;;2.78;;
57718;SDS011;43561;50.090;18.522;2023-04-03T11:17:10;3.42;;;2.33;;
57718;SDS011;43561;50.090;18.522;2023-04-03T11:27:22;3.92;;;2.30;;
57718;SDS011;43561;50.090;18.522;2023-04-03T11:37:33;7.22;;;1.77;;
57718;SDS011;43561;50.090;18.522;2023-04-03T11:47:43;4.05;;;2.63;;
57718;SDS011;43561;50.090;18.522;2023-04-03T12:18:38;2.13;;;1.93;;
57718;SDS011;43561;50.090;18.522;2023-04-03T12:28:41;17.00;;;5.43;;
57718;SDS011;43561;50.090;18.522;2023-04-03T12:59:37;4.75;;;1.98;;
57718;SDS011;43561;50.090;18.522;2023-04-03T13:09:39;4.20;;;1.88;;
57718;SDS011;43561;50.090;18.522;2023-04-03T13:19:41;6.78;;;3.13;;
57718;SDS011;43561;50.090;18.522;2023-04-03T13:29:48;6.43;;;1.83;;
57718;SDS011;43561;50.090;18.522;2023-04-03T14:10:51;2.35;;;2.15;;
57718;SDS011;43561;50.090;18.522;2023-04-03T14:20:53;2.78;;;2.50;;
57718;SDS011;43561;50.090;18.522;2023-04-03T14:30:54;2.95;;;2.08;;
57718;SDS011;43561;50.090;18.522;2023-04-03T14:40:57;2.58;;;2.28;;
57718;SDS011;43561;50.090;18.522;2023-04-03T14:51:16;14.07;;;5.45;;
57718;SDS011;43561;50.090;18.522;2023-04-03T15:01:18;2.78;;;2.58;;
57718;SDS011;43561;50.090;18.522;2023-04-03T15:11:20;9.23;;;4.60;;
57718;SDS011;43561;50.090;18.522;2023-04-03T15:21:22;5.53;;;4.80;;
57718;SDS011;43561;50.090;18.522;2023-04-03T15:31:24;10.65;;;3.50;;
57718;SDS011;43561;50.090;18.522;2023-04-03T15:41:26;4.82;;;3.80;;
57718;SDS011;43561;50.090;18.522;2023-04-03T15:51:27;1.98;;;1.48;;
57718;SDS011;43561;50.090;18.522;2023-04-03T16:01:29;7.43;;;3.47;;
57718;SDS011;43561;50.090;18.522;2023-04-03T16:11:32;4.18;;;2.38;;
57718;SDS011;43561;50.090;18.522;2023-04-03T16:21:34;6.38;;;4.82;;
57718;SDS011;43561;50.090;18.522;2023-04-03T16:31:36;3.65;;;3.35;;
57718;SDS011;43561;50.090;18.522;2023-04-03T16:41:38;5.25;;;3.40;;
57718;SDS011;43561;50.090;18.522;2023-04-03T16:51:40;22.45;;;5.13;;
57718;SDS011;43561;50.090;18.522;2023-04-03T17:01:42;10.77;;;3.42;;
57718;SDS011;43561;50.090;18.522;2023-04-03T17:11:44;5.78;;;3.63;;
57718;SDS011;43561;50.090;18.522;2023-04-03T17:21:50;11.00;;;5.43;;
57718;SDS011;43561;50.090;18.522;2023-04-03T17:31:53;13.10;;;4.88;;
57718;SDS011;43561;50.090;18.522;2023-04-03T17:41:55;7.93;;;4.13;;
57718;SDS011;43561;50.090;18.522;2023-04-03T17:51:57;21.92;;;12.77;;
57718;SDS011;43561;50.090;18.522;2023-04-03T18:01:59;14.68;;;8.82;;
57718;SDS011;43561;50.090;18.522;2023-04-03T18:12:02;7.82;;;3.85;;
57718;SDS011;43561;50.090;18.522;2023-04-03T18:22:07;14.43;;;8.15;;
57718;SDS011;43561;50.090;18.522;2023-04-03T18:32:17;15.30;;;8.43;;
57718;SDS011;43561;50.090;18.522;2023-04-03T18:42:21;11.30;;;5.50;;
57718;SDS011;43561;50.090;18.522;2023-04-03T18:52:25;13.02;;;4.72;;
57718;SDS011;43561;50.090;18.522;2023-04-03T19:02:27;12.85;;;6.05;;
57718;SDS011;43561;50.090;18.522;2023-04-03T19:12:29;5.82;;;3.55;;
57718;SDS011;43561;50.090;18.522;2023-04-03T19:22:31;6.60;;;3.60;;
57718;SDS011;43561;50.090;18.522;2023-04-03T19:32:33;12.23;;;5.82;;
57718;SDS011;43561;50.090;18.522;2023-04-03T19:42:35;7.38;;;4.90;;
57718;SDS011;43561;50.090;18.522;2023-04-03T19:52:37;11.02;;;5.70;;
57718;SDS011;43561;50.090;18.522;2023-04-03T20:02:38;14.77;;;7.72;;
57718;SDS011;43561;50.090;18.522;2023-04-03T20:12:40;13.20;;;7.78;;
57718;SDS011;43561;50.090;18.522;2023-04-03T20:22:42;11.15;;;6.03;;
57718;SDS011;43561;50.090;18.522;2023-04-03T20:32:44;10.63;;;4.22;;
57718;SDS011;43561;50.090;18.522;2023-04-03T20:42:46;5.55;;;3.28;;
57718;SDS011;43561;50.090;18.522;2023-04-03T20:52:48;11.30;;;8.68;;
57718;SDS011;43561;50.090;18.522;2023-04-03T21:02:50;8.40;;;3.92;;
57718;SDS011;43561;50.090;18.522;2023-04-03T21:23:32;9.48;;;4.18;;
57718;SDS011;43561;50.090;18.522;2023-04-03T21:33:34;5.68;;;3.30;;
57718;SDS011;43561;50.090;18.522;2023-04-03T21:43:36;11.65;;;6.75;;
57718;SDS011;43561;50.090;18.522;2023-04-03T21:53:38;4.07;;;3.67;;
57718;SDS011;43561;50.090;18.522;2023-04-03T22:03:40;10.73;;;3.47;;
57718;SDS011;43561;50.090;18.522;2023-04-03T22:13:43;9.95;;;5.20;;
57718;SDS011;43561;50.090;18.522;2023-04-03T22:23:45;16.05;;;3.65;;
57718;SDS011;43561;50.090;18.522;2023-04-03T22:33:47;8.27;;;6.18;;
57718;SDS011;43561;50.090;18.522;2023-04-03T22:43:50;4.88;;;3.50;;
57718;SDS011;43561;50.090;18.522;2023-04-03T22:53:52;12.75;;;6.32;;
57718;SDS011;43561;50.090;18.522;2023-04-03T23:03:54;9.35;;;6.50;;
57718;SDS011;43561;50.090;18.522;2023-04-03T23:13:56;7.07;;;4.20;;
57718;SDS011;43561;50.090;18.522;2023-04-03T23:23:57;12.45;;;4.65;;
57718;SDS011;43561;50.090;18.522;2023-04-03T23:33:59;4.90;;;3.95;;
57718;SDS011;43561;50.090;18.522;2023-04-03T23:44:01;5.88;;;3.20;;
57718;SDS011;43561;50.090;18.522;2023-04-03T23:54:03;10.02;;;6.10;;
